Time;durP1;ratioP1;P1;durP2;ratioP2;P2;SDS_P1;SDS_P2;PMS_P1;PMS_P2;Temp;Humidity;BMP_temperature;BMP_pressure;BME280_temperature;BME280_humidity;BME280_pressure;Samples;Min_cycle;Max_cycle;Signal;HPM_P1;HPM_P2
2022/06/25 00:01:58;;;;;;;33.70;20.50;;;18.50;99.90;;;;;;5074429;28;20040;-73
2022/06/25 00:07:08;;;;;;;34.45;20.00;;;;;;;;;;5073937;28;20055;-73
2022/06/25 00:09:34;;;;;;;33.38;21.83;;;17.40;99.90;;;;;;5073891;28;20048;-73
2022/06/25 00:14:44;;;;;;;36.38;22.92;;;19.20;99.90;;;;;;5073681;28;20079;-73
2022/06/25 00:17:10;;;;;;;35.58;23.33;;;;;;;;;;5073382;28;20072;-73
2022/06/25 00:19:36;;;;;;;38.70;22.90;;;;;;;;;;5073660;28;20040;-73
2022/06/25 00:22:02;;;;;;;37.28;22.13;;;;;;;;;;5073780;28;20049;-73
2022/06/25 00:24:28;;;;;;;36.78;23.95;;;17.60;99.90;;;;;;5073536;28;20043;-73
2022/06/25 00:26:54;;;;;;;37.22;21.48;;;18.00;99.90;;;;;;5073778;28;20041;-73
2022/06/25 00:29:19;;;;;;;34.50;20.55;;;18.50;99.90;;;;;;5073487;28;20044;-73
2022/06/25 00:31:45;;;;;;;33.50;21.42;;;;;;;;;;5073520;28;20083;-73
2022/06/25 00:34:11;;;;;;;37.30;21.15;;;;;;;;;;5073395;28;20047;-73
2022/06/25 00:36:37;;;;;;;27.70;18.55;;;17.50;99.90;;;;;;5073472;28;20037;-73
2022/06/25 00:39:04;;;;;;;33.50;18.95;;;17.20;99.90;;;;;;5056578;28;20075;-73
2022/06/25 00:41:30;;;;;;;29.88;20.77;;;19.20;99.90;;;;;;5073310;28;20040;-73
2022/06/25 00:43:56;;;;;;;41.15;19.83;;;;;;;;;;5073499;28;20498;-73
2022/06/25 00:46:22;;;;;;;23.90;17.67;;;18.90;99.90;;;;;;5073177;28;20041;-73
2022/06/25 00:48:47;;;;;;;25.80;17.50;;;18.00;99.90;;;;;;5073375;28;20044;-73
2022/06/25 00:51:15;;;;;;;24.05;16.85;;;18.00;99.90;;;;;;5056463;28;20055;-73
2022/06/25 00:53:45;;;;;;;25.13;17.55;;;18.10;99.90;;;;;;5073264;28;20048;-72
2022/06/25 00:56:13;;;;;;;24.88;17.52;;;18.20;99.90;;;;;;5072575;28;20049;-72
2022/06/25 00:58:41;;;;;;;25.02;17.75;;;18.30;99.90;;;;;;5073125;28;20431;-73
2022/06/25 01:01:08;;;;;;;27.70;18.20;;;;;;;;;;5072993;28;20040;-73
2022/06/25 01:03:37;;;;;;;26.67;18.27;;;17.40;99.90;;;;;;5072957;28;20477;-73
2022/06/25 01:06:04;;;;;;;28.25;19.10;;;18.00;99.90;;;;;;5072816;28;20127;-73
2022/06/25 01:08:34;;;;;;;28.27;19.30;;;18.90;99.90;;;;;;5072672;28;20056;-73
2022/06/25 01:11:01;;;;;;;32.22;21.00;;;18.40;99.90;;;;;;5072538;28;20040;-73
2022/06/25 01:13:28;;;;;;;35.53;22.67;;;17.80;99.90;;;;;;5056371;28;20063;-73
2022/06/25 01:15:54;;;;;;;38.08;23.08;;;17.80;99.90;;;;;;5072464;28;20548;-73
2022/06/25 01:18:20;;;;;;;37.40;23.83;;;18.70;99.90;;;;;;5073950;28;20119;-72
2022/06/25 01:20:46;;;;;;;41.35;24.83;;;;;;;;;;5072532;28;20044;-72
2022/06/25 01:23:12;;;;;;;34.42;23.80;;;17.70;99.90;;;;;;5072629;28;20139;-72
2022/06/25 01:25:40;;;;;;;39.63;26.00;;;18.00;99.90;;;;;;5056078;28;20103;-72
2022/06/25 01:28:06;;;;;;;39.70;25.63;;;;;;;;;;5039291;28;20043;-73
2022/06/25 01:30:33;;;;;;;45.22;27.40;;;16.80;99.90;;;;;;5072358;28;20041;-73
2022/06/25 01:32:59;;;;;;;40.47;27.10;;;16.70;99.90;;;;;;5072080;28;20044;-73
2022/06/25 01:35:24;;;;;;;39.78;24.23;;;18.10;99.90;;;;;;5072269;28;20036;-73
2022/06/25 01:37:50;;;;;;;37.53;25.52;;;17.10;99.90;;;;;;5072254;28;20032;-73
2022/06/25 01:40:16;;;;;;;41.15;26.48;;;16.70;99.90;;;;;;5055972;28;20032;-73
2022/06/25 01:42:58;;;;;;;39.13;24.65;;;;;;;;;;5071771;28;20496;-72
2022/06/25 01:45:24;;;;;;;42.60;26.40;;;;;;;;;;5055727;28;20032;-72
2022/06/25 01:47:50;;;;;;;45.60;26.75;;;;;;;;;;5055642;28;20302;-72
2022/06/25 01:50:17;;;;;;;41.67;26.13;;;;;;;;;;5072354;28;20131;-72
2022/06/25 01:52:46;;;;;;;41.28;23.58;;;18.90;99.90;;;;;;5072453;28;20037;-72
2022/06/25 01:55:13;;;;;;;38.67;25.58;;;;;;;;;;5055748;28;20417;-72
2022/06/25 01:57:39;;;;;;;41.50;26.60;;;;;;;;;;5055331;28;20044;-72
2022/06/25 02:00:07;;;;;;;43.58;26.85;;;16.60;99.90;;;;;;5071983;28;20043;-73
2022/06/25 02:02:33;;;;;;;41.72;26.52;;;18.70;99.90;;;;;;5072141;28;20048;-72
2022/06/25 02:04:59;;;;;;;37.90;26.42;;;;;;;;;;5072081;28;20507;-72
2022/06/25 02:07:25;;;;;;;40.28;26.33;;;;;;;;;;5072133;28;20044;-72
2022/06/25 02:09:50;;;;;;;41.80;26.88;;;18.90;99.90;;;;;;5071844;28;20128;-71
2022/06/25 02:12:16;;;;;;;42.92;27.38;;;;;;;;;;5071995;28;20072;-72
2022/06/25 02:14:43;;;;;;;43.20;28.20;;;;;;;;;;5072048;28;20048;-72
2022/06/25 02:17:09;;;;;;;37.97;27.23;;;;;;;;;;5071724;28;20033;-72
2022/06/25 02:19:35;;;;;;;38.22;25.73;;;;;;;;;;5071941;28;20044;-72
2022/06/25 02:22:01;;;;;;;39.80;27.13;;;;;;;;;;5054964;28;20040;-72
2022/06/25 02:24:28;;;;;;;42.42;26.92;;;;;;;;;;5038540;28;20508;-72
2022/06/25 02:26:54;;;;;;;36.42;26.50;;;;;;;;;;5071931;28;20121;-72
2022/06/25 02:29:20;;;;;;;40.25;27.02;;;;;;;;;;5055319;28;20040;-73
2022/06/25 02:31:45;;;;;;;39.35;27.05;;;18.70;99.90;;;;;;5071822;28;20047;-72
2022/06/25 02:34:11;;;;;;;39.38;26.90;;;;;;;;;;5054919;28;20045;-72
2022/06/25 02:36:37;;;;;;;38.55;26.75;;;;;;;;;;5071577;28;20052;-72
2022/06/25 02:39:04;;;;;;;35.47;25.92;;;;;;;;;;5071545;28;20040;-72
2022/06/25 02:41:30;;;;;;;36.97;25.25;;;;;;;;;;5071602;28;20094;-73
2022/06/25 02:43:56;;;;;;;39.10;26.35;;;;;;;;;;5071863;28;20397;-72
2022/06/25 02:46:22;;;;;;;42.88;26.73;;;;;;;;;;5071811;28;20159;-73
2022/06/25 02:48:48;;;;;;;38.03;25.65;;;;;;;;;;5071473;28;20044;-72
2022/06/25 02:51:13;;;;;;;33.30;24.65;;;17.30;99.90;;;;;;5054684;28;20037;-73
2022/06/25 02:53:40;;;;;;;44.63;26.42;;;;;;;;;;5054717;28;20074;-73
2022/06/25 02:58:54;;;;;;;34.00;24.10;;;;;;;;;;5075086;28;20046;-73
2022/06/25 03:01:20;;;;;;;38.75;24.65;;;18.20;99.90;;;;;;5058464;28;20037;-73
2022/06/25 03:03:46;;;;;;;33.55;23.17;;;;;;;;;;5074881;28;20044;-73
2022/06/25 03:06:12;;;;;;;33.33;24.75;;;;;;;;;;5074786;28;20040;-73
2022/06/25 03:08:38;;;;;;;33.35;23.75;;;;;;;;;;5074931;28;20045;-72
2022/06/25 03:11:05;;;;;;;35.55;23.15;;;;;;;;;;5074922;28;20040;-72
2022/06/25 03:13:34;;;;;;;34.10;22.88;;;;;;;;;;5058238;28;20065;-73
2022/06/25 03:16:00;;;;;;;36.72;23.60;;;;;;;;;;5075003;28;20044;-73
2022/06/25 03:18:26;;;;;;;31.27;23.02;;;;;;;;;;5074891;28;20032;-72
2022/06/25 03:20:52;;;;;;;29.83;21.45;;;;;;;;;;5058118;28;20037;-73
2022/06/25 03:23:19;;;;;;;32.88;22.65;;;;;;;;;;5075031;28;20119;-72
2022/06/25 03:25:45;;;;;;;32.28;21.65;;;;;;;;;;5074782;28;20051;-72
2022/06/25 03:28:11;;;;;;;33.53;21.50;;;;;;;;;;5074584;28;20040;-72
2022/06/25 03:30:38;;;;;;;28.55;20.73;;;;;;;;;;5057990;28;20040;-72
2022/06/25 03:33:04;;;;;;;30.35;20.98;;;;;;;;;;5074828;28;20388;-73
2022/06/25 03:35:30;;;;;;;28.30;20.55;;;;;;;;;;5074507;28;20452;-72
2022/06/25 03:37:56;;;;;;;26.77;19.15;;;;;;;;;;5074597;28;20033;-72
2022/06/25 03:40:23;;;;;;;31.38;21.08;;;;;;;;;;5057903;28;20090;-72
2022/06/25 03:42:49;;;;;;;25.92;19.30;;;;;;;;;;5074583;28;20094;-72
2022/06/25 03:45:15;;;;;;;25.20;18.98;;;;;;;;;;5074686;28;20485;-72
2022/06/25 03:47:41;;;;;;;24.38;18.63;;;;;;;;;;5074383;28;20044;-73
2022/06/25 03:50:07;;;;;;;29.88;17.88;;;16.30;99.90;;;;;;5074694;28;20463;-72
2022/06/25 03:52:34;;;;;;;24.38;18.15;;;16.50;99.90;;;;;;5057682;28;20052;-73
2022/06/25 03:55:00;;;;;;;26.67;17.55;;;;;;;;;;5074239;28;20163;-72
2022/06/25 03:57:26;;;;;;;28.48;17.83;;;;;;;;;;5075344;28;20056;-72
2022/06/25 03:59:52;;;;;;;31.60;17.92;;;;;;;;;;5074486;28;20091;-72
2022/06/25 04:02:18;;;;;;;24.75;17.27;;;;;;;;;;5074152;28;20032;-72
2022/06/25 04:04:44;;;;;;;23.10;16.77;;;;;;;;;;5074120;28;20174;-72
2022/06/25 04:07:12;;;;;;;26.25;17.00;;;;;;;;;;5073746;28;20081;-73
2022/06/25 04:09:38;;;;;;;27.40;16.23;;;17.70;99.90;;;;;;5074202;28;20058;-72
2022/06/25 04:12:04;;;;;;;25.25;17.27;;;17.50;99.90;;;;;;5073951;28;20548;-72
2022/06/25 04:14:30;;;;;;;25.73;16.80;;;;;;;;;;5075341;28;20036;-72
2022/06/25 04:16:56;;;;;;;23.27;16.75;;;;;;;;;;5073788;28;20059;-72
2022/06/25 04:19:22;;;;;;;25.25;16.77;;;17.20;99.90;;;;;;5073879;28;20039;-72
2022/06/25 04:21:49;;;;;;;21.45;15.60;;;17.50;99.90;;;;;;5073751;28;20085;-72
2022/06/25 04:24:15;;;;;;;25.05;16.33;;;;;;;;;;5073618;28;20066;-72
2022/06/25 04:26:42;;;;;;;20.52;15.88;;;17.70;99.90;;;;;;5056955;28;20045;-72
2022/06/25 04:29:08;;;;;;;25.42;16.20;;;18.60;99.90;;;;;;5073577;28;20055;-72
2022/06/25 04:31:36;;;;;;;20.77;16.08;;;17.40;99.90;;;;;;5073525;28;20044;-72
2022/06/25 04:34:04;;;;;;;23.98;15.77;;;17.70;99.90;;;;;;5073421;28;20696;-72
2022/06/25 04:36:29;;;;;;;31.02;16.30;;;18.20;99.90;;;;;;5073315;28;20037;-72
2022/06/25 04:38:55;;;;;;;22.58;15.48;;;18.70;99.90;;;;;;5073847;28;20048;-73
2022/06/25 04:41:22;;;;;;;20.00;14.68;;;;;;;;;;5056925;28;20047;-72
2022/06/25 04:43:48;;;;;;;22.98;15.73;;;17.80;99.90;;;;;;5073212;28;20439;-72
2022/06/25 04:46:14;;;;;;;21.67;14.80;;;;;;;;;;5073485;28;20366;-73
2022/06/25 04:48:40;;;;;;;17.60;13.73;;;;;;;;;;5073317;28;20119;-73
2022/06/25 04:51:07;;;;;;;22.40;15.38;;;;;;;;;;5073406;28;20126;-73
2022/06/25 04:53:33;;;;;;;21.80;15.38;;;;;;;;;;5073215;28;20128;-73
2022/06/25 04:55:59;;;;;;;21.88;16.00;;;17.20;99.90;;;;;;5072856;28;20102;-73
2022/06/25 04:58:25;;;;;;;19.60;15.02;;;;;;;;;;5072999;28;20052;-72
2022/06/25 05:00:51;;;;;;;20.33;15.60;;;17.90;99.90;;;;;;5072988;28;20119;-72
2022/06/25 05:03:17;;;;;;;24.17;15.38;;;;;;;;;;5073224;28;20119;-72
2022/06/25 05:05:43;;;;;;;22.50;15.40;;;;;;;;;;5073129;28;20049;-72
2022/06/25 05:08:09;;;;;;;22.25;15.73;;;;;;;;;;5072972;28;20041;-72
2022/06/25 05:10:36;;;;;;;21.63;15.40;;;;;;;;;;5074204;28;20040;-72
2022/06/25 05:13:14;;;;;;;20.10;14.30;;;;;;;;;;5072977;28;20059;-72
2022/06/25 05:15:41;;;;;;;19.38;14.63;;;18.70;99.90;;;;;;5072518;28;20043;-72
2022/06/25 05:18:08;;;;;;;21.85;15.13;;;17.10;99.90;;;;;;5071905;28;20037;-73
2022/06/25 05:20:41;;;;;;;20.73;14.27;;;18.90;99.90;;;;;;5072423;28;20033;-72
2022/06/25 05:23:07;;;;;;;19.92;14.30;;;;;;;;;;5055770;28;20040;-72
2022/06/25 05:25:34;;;;;;;20.67;14.80;;;18.10;99.90;;;;;;5055631;28;20075;-72
2022/06/25 05:28:00;;;;;;;19.77;15.27;;;19.00;99.90;;;;;;5072325;28;20032;-72
2022/06/25 05:30:26;;;;;;;23.15;15.07;;;;;;;;;;5055545;28;20128;-72
2022/06/25 05:32:52;;;;;;;18.33;14.07;;;;;;;;;;5055600;28;20461;-72
2022/06/25 05:35:19;;;;;;;20.00;14.25;;;;;;;;;;5072309;28;20044;-72
2022/06/25 05:37:45;;;;;;;21.00;14.07;;;;;;;;;;5072148;28;20492;-72
2022/06/25 05:40:11;;;;;;;19.67;14.02;;;;;;;;;;5072510;28;20123;-72
2022/06/25 05:42:37;;;;;;;19.33;14.35;;;;;;;;;;5072182;28;20044;-73
2022/06/25 05:45:04;;;;;;;20.55;13.45;;;19.50;99.90;;;;;;5055300;28;20044;-72
2022/06/25 05:47:30;;;;;;;20.75;14.32;;;;;;;;;;5072311;28;20040;-72
2022/06/25 05:49:56;;;;;;;19.00;14.20;;;;;;;;;;5072026;28;20052;-72
2022/06/25 05:52:22;;;;;;;21.30;13.95;;;19.40;99.90;;;;;;5072048;28;20048;-72
2022/06/25 05:54:48;;;;;;;16.55;12.88;;;;;;;;;;5072208;28;20115;-72
2022/06/25 05:57:15;;;;;;;20.90;13.60;;;;;;;;;;5071743;28;20048;-72
2022/06/25 05:59:41;;;;;;;20.75;13.25;;;19.00;99.90;;;;;;5055536;28;20040;-72
2022/06/25 06:02:07;;;;;;;21.02;13.73;;;19.20;99.90;;;;;;5055351;28;20492;-72
2022/06/25 06:04:33;;;;;;;22.75;13.32;;;;;;;;;;5055141;28;20530;-72
2022/06/25 06:07:00;;;;;;;20.38;13.63;;;;;;;;;;5071803;28;20048;-72
2022/06/25 06:09:27;;;;;;;23.80;13.88;;;;;;;;;;5055498;28;20076;-70
2022/06/25 06:11:54;;;;;;;19.25;13.35;;;19.20;99.90;;;;;;5071891;28;20139;-70
2022/06/25 06:14:21;;;;;;;20.33;13.10;;;;;;;;;;5071820;28;20040;-70
2022/06/25 06:16:47;;;;;;;19.83;13.10;;;;;;;;;;5055084;28;20093;-69
2022/06/25 06:19:13;;;;;;;19.95;13.13;;;;;;;;;;5071988;28;20044;-69
2022/06/25 06:21:39;;;;;;;21.83;13.70;;;;;;;;;;5071676;28;20036;-69
2022/06/25 06:24:06;;;;;;;17.27;12.20;;;19.20;99.90;;;;;;5071668;28;20041;-70
2022/06/25 06:26:32;;;;;;;22.05;13.25;;;;;;;;;;5038952;28;20135;-69
2022/06/25 06:28:58;;;;;;;17.77;12.40;;;;;;;;;;5040170;28;20453;-70
2022/06/25 06:31:25;;;;;;;17.02;12.05;;;;;;;;;;5059185;28;20044;-69
2022/06/25 06:33:50;;;;;;;20.95;12.32;;;20.50;99.90;;;;;;5075637;28;20041;-69
2022/06/25 06:36:16;;;;;;;17.83;11.90;;;;;;;;;;5075514;28;20101;-70
2022/06/25 06:38:42;;;;;;;19.00;11.43;;;18.90;99.90;;;;;;5075838;28;20032;-70
2022/06/25 06:41:08;;;;;;;17.33;11.35;;;;;;;;;;5075806;28;20554;-70
2022/06/25 06:43:34;;;;;;;15.38;11.27;;;19.40;99.90;;;;;;5075379;28;20063;-70
2022/06/25 06:46:00;;;;;;;22.35;12.23;;;;;;;;;;5075325;28;20041;-70
2022/06/25 06:48:26;;;;;;;16.25;11.45;;;;;;;;;;5075357;28;20117;-70
2022/06/25 06:50:52;;;;;;;14.80;10.65;;;;;;;;;;5075213;28;20047;-69
2022/06/25 06:53:20;;;;;;;20.88;11.55;;;;;;;;;;5058669;28;20044;-69
2022/06/25 06:55:46;;;;;;;15.55;10.82;;;;;;;;;;5075375;28;20393;-69
2022/06/25 06:58:12;;;;;;;19.45;10.52;;;;;;;;;;5075263;28;20059;-69
2022/06/25 07:00:38;;;;;;;14.63;9.80;;;;;;;;;;5075223;28;20548;-69
2022/06/25 07:03:04;;;;;;;20.80;10.88;;;;;;;;;;5075090;28;20044;-69
2022/06/25 07:05:30;;;;;;;18.30;10.48;;;21.20;99.90;;;;;;5074881;28;20105;-69
2022/06/25 07:07:56;;;;;;;15.35;9.30;;;;;;;;;;5074931;28;20123;-70
2022/06/25 07:10:22;;;;;;;17.88;9.30;;;20.50;99.90;;;;;;5058274;28;20040;-69
2022/06/25 07:12:48;;;;;;;15.70;8.52;;;;;;;;;;5041987;28;20045;-70
2022/06/25 07:15:14;;;;;;;12.68;8.00;;;20.50;99.90;;;;;;5074905;28;20076;-69
2022/06/25 07:17:40;;;;;;;14.40;7.80;;;20.70;99.90;;;;;;5058185;28;20121;-69
2022/06/25 07:20:06;;;;;;;15.60;8.00;;;21.40;99.90;;;;;;5074693;28;20377;-70
2022/06/25 07:22:33;;;;;;;14.45;7.75;;;;;;;;;;5075171;28;20056;-69
2022/06/25 07:24:59;;;;;;;19.63;7.18;;;19.80;99.90;;;;;;5074590;28;20089;-69
2022/06/25 07:27:25;;;;;;;14.27;7.60;;;19.70;99.90;;;;;;5074950;28;20040;-69
2022/06/25 07:29:51;;;;;;;12.43;7.03;;;;;;;;;;5074660;28;20044;-69
2022/06/25 07:32:17;;;;;;;13.43;7.75;;;;;;;;;;5075137;28;20488;-69
2022/06/25 07:34:43;;;;;;;14.07;7.43;;;;;;;;;;5075442;28;20504;-69
2022/06/25 07:37:09;;;;;;;18.83;7.75;;;;;;;;;;5075620;28;20576;-69
2022/06/25 07:39:35;;;;;;;18.45;7.68;;;;;;;;;;5074076;28;20041;-69
2022/06/25 07:42:01;;;;;;;15.75;7.80;;;;;;;;;;5073872;28;20033;-69
2022/06/25 07:44:27;;;;;;;18.88;7.53;;;21.50;99.90;;;;;;5057762;28;20033;-69
2022/06/25 07:46:53;;;;;;;11.73;7.15;;;;;;;;;;5057607;28;20040;-70
2022/06/25 07:49:18;;;;;;;15.27;7.35;;;21.60;99.90;;;;;;5074475;28;20362;-70
2022/06/25 07:51:56;;;;;;;15.63;7.40;;;;;;;;;;5057533;28;20051;-70
2022/06/25 07:54:29;;;;;;;14.32;6.72;;;21.70;99.90;;;;;;5059102;28;20481;-69
2022/06/25 07:56:57;;;;;;;14.40;6.30;;;21.60;99.90;;;;;;5074116;28;20086;-70
2022/06/25 07:59:23;;;;;;;11.02;6.20;;;20.20;99.90;;;;;;5057449;28;20043;-70
2022/06/25 08:01:49;;;;;;;13.15;6.38;;;20.80;99.90;;;;;;5074049;28;20044;-69
2022/06/25 08:04:15;;;;;;;13.60;6.18;;;21.90;99.90;;;;;;5074029;28;20094;-69
2022/06/25 08:06:41;;;;;;;11.55;6.10;;;;;;;;;;5074030;28;20152;-69
2022/06/25 08:09:08;;;;;;;11.70;6.00;;;21.90;99.90;;;;;;5073899;28;20166;-69
2022/06/25 08:11:34;;;;;;;12.27;6.07;;;21.60;99.90;;;;;;5057216;28;20484;-68
2022/06/25 08:14:01;;;;;;;17.35;6.40;;;21.60;99.90;;;;;;5073816;28;20040;-69
2022/06/25 08:16:27;;;;;;;12.70;6.20;;;21.70;99.20;;;;;;5073544;28;20500;-69
2022/06/25 08:18:53;;;;;;;13.38;6.53;;;20.50;99.90;;;;;;5073731;28;20501;-69
2022/06/25 08:21:19;;;;;;;16.63;6.15;;;22.00;99.90;;;;;;5073653;28;20036;-69
2022/06/25 08:23:45;;;;;;;9.27;6.35;;;20.90;99.90;;;;;;5073917;28;20032;-69
2022/06/25 08:26:11;;;;;;;9.40;6.15;;;22.10;99.90;;;;;;5073533;28;20098;-69
2022/06/25 08:28:37;;;;;;;10.75;6.07;;;;;;;;;;5073671;28;20080;-69
2022/06/25 08:31:03;;;;;;;17.17;6.78;;;21.20;98.90;;;;;;5073770;28;20051;-69
2022/06/25 08:33:30;;;;;;;12.25;5.65;;;21.60;99.90;;;;;;5073550;28;20044;-71
2022/06/25 08:35:55;;;;;;;12.40;5.85;;;21.20;99.90;;;;;;5073470;28;20040;-71
2022/06/25 08:38:21;;;;;;;11.27;5.65;;;;;;;;;;5073386;28;20087;-69
2022/06/25 08:40:47;;;;;;;15.90;6.85;;;;;;;;;;5073348;28;20110;-69
2022/06/25 08:43:14;;;;;;;14.60;6.75;;;;;;;;;;5073222;28;20481;-69
2022/06/25 08:45:40;;;;;;;12.73;6.65;;;22.30;99.90;;;;;;5073332;28;20361;-69
2022/06/25 08:48:20;;;;;;;12.45;6.32;;;22.50;99.90;;;;;;5056414;28;20487;-69
2022/06/25 08:50:48;;;;;;;13.07;5.57;;;22.70;99.90;;;;;;5072950;28;20044;-69
2022/06/25 08:53:15;;;;;;;12.23;6.47;;;21.70;99.90;;;;;;5073529;28;20036;-70
2022/06/25 08:55:41;;;;;;;10.00;5.53;;;22.70;99.90;;;;;;5073086;28;20125;-69
2022/06/25 08:58:09;;;;;;;10.35;5.90;;;23.00;99.90;;;;;;5073330;28;20049;-69
2022/06/25 09:00:37;;;;;;;12.23;6.88;;;22.50;99.90;;;;;;5072915;28;20037;-69
2022/06/25 09:03:04;;;;;;;14.93;7.40;;;21.60;99.90;;;;;;5072735;28;20055;-69
2022/06/25 09:05:32;;;;;;;18.52;7.18;;;21.70;99.90;;;;;;5072827;28;20047;-69
2022/06/25 09:08:00;;;;;;;14.60;7.95;;;23.40;99.90;;;;;;5072677;28;20098;-69
2022/06/25 09:10:27;;;;;;;10.52;6.82;;;22.20;99.90;;;;;;5072520;28;20511;-69
2022/06/25 09:12:55;;;;;;;10.93;6.38;;;23.60;97.20;;;;;;5072552;28;20040;-69
2022/06/25 09:15:25;;;;;;;8.98;5.65;;;22.20;99.90;;;;;;5072697;28;20079;-70
2022/06/25 09:17:52;;;;;;;11.45;5.78;;;22.20;99.90;;;;;;5072505;28;20139;-69
2022/06/25 09:20:19;;;;;;;12.57;7.18;;;23.20;96.30;;;;;;5072534;28;20051;-70
2022/06/25 09:23:02;;;;;;;11.85;6.43;;;23.00;99.90;;;;;;5072515;28;20040;-69
2022/06/25 09:25:31;;;;;;;12.88;6.47;;;23.90;99.70;;;;;;5072529;28;20045;-69
2022/06/25 09:27:57;;;;;;;10.77;6.00;;;;;;;;;;5072432;28;20098;-70
2022/06/25 09:30:29;;;;;;;12.18;5.78;;;23.10;99.00;;;;;;5072464;28;20504;-69
2022/06/25 09:32:59;;;;;;;;;;;23.50;95.70;;;;;;5072779;28;20048;-69
2022/06/25 09:35:36;;;;;;;14.90;5.68;;;23.90;99.10;;;;;;5072372;28;19916;-69
2022/06/25 09:38:03;;;;;;;8.45;6.38;;;;;;;;;;5072239;28;20418;-70
2022/06/25 09:40:29;;;;;;;12.25;6.32;;;23.70;98.40;;;;;;5072457;28;20394;-69
2022/06/25 09:42:59;;;;;;;13.60;6.30;;;24.20;98.50;;;;;;5072426;28;20063;-70
2022/06/25 09:45:26;;;;;;;12.70;5.35;;;;;;;;;;5072232;28;20511;-70
2022/06/25 09:47:54;;;;;;;11.95;5.63;;;24.20;98.50;;;;;;5072417;28;20392;-70
2022/06/25 09:50:20;;;;;;;10.43;5.60;;;24.40;98.30;;;;;;5055520;28;20044;-70
2022/06/25 09:52:59;;;;;;;9.82;6.05;;;24.40;98.00;;;;;;5072273;28;20067;-69
2022/06/25 09:55:28;;;;;;;10.75;6.10;;;24.00;97.90;;;;;;5055236;28;20052;-70
2022/06/25 09:57:54;;;;;;;11.65;6.82;;;24.20;97.90;;;;;;5071870;28;20048;-70
2022/06/25 10:00:22;;;;;;;18.65;7.40;;;24.30;98.00;;;;;;5072066;28;20047;-69
2022/06/25 10:02:50;;;;;;;13.55;8.10;;;22.90;97.70;;;;;;5071642;28;20119;-70
2022/06/25 10:05:35;;;;;;;18.13;6.70;;;23.00;97.90;;;;;;5071724;28;20048;-71
2022/06/25 10:08:05;;;;;;;10.73;5.85;;;23.00;97.80;;;;;;5071911;28;20049;-72
2022/06/25 10:10:39;;;;;;;15.70;6.20;;;24.00;93.00;;;;;;5055290;28;20051;-72
2022/06/25 10:13:06;;;;;;;11.10;4.95;;;24.50;97.50;;;;;;5071950;28;20036;-72
2022/06/25 10:15:32;;;;;;;11.35;5.18;;;23.30;97.20;;;;;;5071808;28;20120;-72
2022/06/25 10:18:03;;;;;;;11.02;5.53;;;23.80;93.30;;;;;;5071836;28;20048;-72
2022/06/25 10:20:31;;;;;;;14.45;4.45;;;24.00;97.10;;;;;;5072031;28;20048;-72
2022/06/25 10:22:59;;;;;;;8.48;4.82;;;23.70;96.80;;;;;;5071867;28;20032;-72
2022/06/25 10:25:26;;;;;;;13.38;4.95;;;24.80;93.70;;;;;;5054701;28;20040;-72
2022/06/25 10:28:06;;;;;;;11.40;5.03;;;24.10;96.60;;;;;;5071962;28;20036;-72
2022/06/25 10:30:45;;;;;;;9.15;4.60;;;24.60;96.90;;;;;;5071840;28;20539;-72
2022/06/25 10:33:17;;;;;;;11.82;3.97;;;24.40;96.70;;;;;;5055098;28;20048;-72
2022/06/25 10:35:44;;;;;;;11.23;4.50;;;24.10;96.80;;;;;;5071750;28;20049;-72
2022/06/25 10:38:18;;;;;;;9.68;3.50;;;23.70;96.30;;;;;;5071716;28;20048;-72
2022/06/25 10:40:56;;;;;;;7.22;2.85;;;23.60;96.00;;;;;;5072870;28;20041;-72
2022/06/25 10:43:42;;;;;;;14.82;3.30;;;24.10;96.20;;;;;;5071578;28;20049;-73
2022/06/25 10:46:26;;;;;;;9.75;3.42;;;23.00;96.30;;;;;;5054905;28;20044;-72
2022/06/25 10:49:07;;;;;;;9.65;2.90;;;22.30;96.70;;;;;;5054847;28;20070;-72
2022/06/25 10:51:41;;;;;;;14.65;3.97;;;22.00;96.60;;;;;;5071516;28;20045;-72
2022/06/25 10:54:13;;;;;;;14.90;3.53;;;22.20;97.70;;;;;;5071799;28;20369;-73
2022/06/25 10:56:47;;;;;;;12.75;3.20;;;21.20;97.90;;;;;;5071199;28;20053;-73
2022/06/25 10:59:39;;;;;;;14.05;4.15;;;21.10;96.80;;;;;;5071699;28;20048;-73
2022/06/25 11:02:07;;;;;;;18.33;4.03;;;22.20;96.90;;;;;;5071424;28;20049;-73
2022/06/25 11:04:33;;;;;;;18.20;4.80;;;;;;;;;;5054800;28;20484;-73
2022/06/25 11:07:12;;;;;;;11.40;4.20;;;22.00;95.50;;;;;;5071457;28;20083;-73
2022/06/25 11:09:39;;;;;;;9.85;4.10;;;21.40;96.00;;;;;;5071391;28;20049;-73
2022/06/25 11:12:06;;;;;;;10.88;4.20;;;21.30;95.90;;;;;;5071445;28;20047;-73
2022/06/25 11:14:32;;;;;;;11.13;4.55;;;22.20;99.90;;;;;;5071630;28;20094;-73
2022/06/25 11:17:05;;;;;;;15.23;4.75;;;20.60;99.90;;;;;;5057587;28;20484;-73
2022/06/25 11:19:31;;;;;;;13.95;4.80;;;20.90;99.70;;;;;;5075151;28;20420;-73
2022/06/25 11:22:01;;;;;;;10.77;3.95;;;22.10;99.40;;;;;;5074878;28;20044;-73
2022/06/25 11:24:27;;;;;;;14.70;3.65;;;22.50;99.20;;;;;;5074702;28;20046;-73
2022/06/25 11:29:46;;;;;;;14.10;3.90;;;22.50;98.90;;;;;;5074822;28;20044;-73
2022/06/25 11:32:23;;;;;;;19.70;4.55;;;22.80;98.80;;;;;;5074844;28;20052;-73
2022/06/25 11:34:57;;;;;;;17.13;4.85;;;22.10;98.20;;;;;;5075000;28;20102;-73
2022/06/25 11:37:24;;;;;;;14.85;4.88;;;21.90;94.30;;;;;;5074617;28;20045;-73
2022/06/25 11:39:50;;;;;;;16.80;4.45;;;22.70;98.70;;;;;;5074941;28;20037;-73
2022/06/25 11:42:17;;;;;;;18.05;4.53;;;22.60;98.70;;;;;;5058163;28;20113;-73
2022/06/25 11:44:48;;;;;;;15.90;4.32;;;22.30;98.90;;;;;;5074309;28;20048;-73
2022/06/25 11:47:21;;;;;;;18.48;5.50;;;22.60;99.00;;;;;;5074548;28;20493;-73
2022/06/25 11:49:47;;;;;;;19.75;6.15;;;22.20;99.00;;;;;;5074470;28;20080;-73
2022/06/25 11:52:14;;;;;;;18.25;6.18;;;21.70;95.30;;;;;;5074615;28;20054;-73
2022/06/25 11:54:41;;;;;;;11.10;5.78;;;21.50;95.80;;;;;;5074586;28;20040;-73
2022/06/25 11:57:16;;;;;;;15.93;8.27;;;21.30;98.90;;;;;;5074140;28;20132;-72
2022/06/25 11:59:42;;;;;;;15.65;8.05;;;20.60;96.50;;;;;;5074076;28;20041;-72
2022/06/25 12:02:08;;;;;;;24.92;8.38;;;21.60;95.40;;;;;;5057414;28;20132;-73
2022/06/25 12:04:49;;;;;;;15.85;9.10;;;22.40;99.60;;;;;;5074827;28;20044;-73
2022/06/25 12:07:25;;;;;;;16.65;9.30;;;22.20;99.80;;;;;;5074112;28;20043;-73
2022/06/25 12:09:54;;;;;;;13.90;8.43;;;22.30;98.60;;;;;;5074141;28;20047;-73
2022/06/25 12:12:22;;;;;;;22.80;10.13;;;22.00;99.90;;;;;;5073953;28;20101;-73
2022/06/25 12:14:49;;;;;;;16.45;8.55;;;22.40;99.90;;;;;;5073880;28;20041;-73
2022/06/25 12:17:16;;;;;;;21.35;9.73;;;21.90;99.90;;;;;;5057381;28;20389;-73
2022/06/25 12:19:54;;;;;;;18.77;9.75;;;22.40;99.90;;;;;;5073738;28;20033;-73
2022/06/25 12:22:25;;;;;;;14.27;10.13;;;22.80;99.90;;;;;;5073994;28;20044;-73
2022/06/25 12:24:53;;;;;;;21.27;11.60;;;21.60;96.60;;;;;;5073830;28;20048;-73
2022/06/25 12:27:19;;;;;;;16.50;11.70;;;22.20;99.30;;;;;;5073478;28;20178;-73
2022/06/25 12:29:50;;;;;;;17.52;11.52;;;23.20;99.20;;;;;;5057086;28;20486;-73
2022/06/25 12:32:17;;;;;;;18.23;10.93;;;;;;;;;;5073760;28;20055;-73
2022/06/25 12:34:50;;;;;;;18.13;11.00;;;23.40;98.70;;;;;;5073591;28;20052;-73
2022/06/25 12:37:33;;;;;;;20.33;10.02;;;23.00;98.20;;;;;;5056804;28;20048;-73
2022/06/25 12:39:59;;;;;;;16.85;8.77;;;23.70;93.60;;;;;;5073427;28;20047;-73
2022/06/25 12:42:29;;;;;;;16.02;10.75;;;24.40;97.70;;;;;;5073576;28;20044;-73
2022/06/25 12:44:56;;;;;;;14.73;9.65;;;23.90;97.40;;;;;;5073142;28;20489;-73
2022/06/25 12:47:22;;;;;;;18.40;9.50;;;23.50;97.40;;;;;;5073247;28;20048;-73
2022/06/25 12:49:56;;;;;;;14.65;9.80;;;24.20;92.50;;;;;;5073142;28;20559;-73
2022/06/25 12:52:35;;;;;;;15.90;10.48;;;24.70;97.10;;;;;;5056377;28;20051;-73
2022/06/25 12:55:01;;;;;;;21.85;10.70;;;24.40;96.80;;;;;;5073021;28;20110;-73
2022/06/25 12:57:28;;;;;;;22.15;9.85;;;24.30;96.80;;;;;;5072967;28;20056;-73
2022/06/25 12:59:54;;;;;;;18.63;9.73;;;24.00;96.90;;;;;;5072855;28;20044;-73
2022/06/25 13:02:20;;;;;;;18.20;9.57;;;23.40;96.90;;;;;;5072910;28;20050;-73
2022/06/25 13:04:47;;;;;;;18.17;8.60;;;22.50;96.80;;;;;;5072864;28;20043;-73
2022/06/25 13:07:13;;;;;;;16.65;9.98;;;;;;;;;;5072841;28;20044;-73
2022/06/25 13:09:44;;;;;;;13.52;8.43;;;22.70;97.00;;;;;;5072900;28;20044;-73
2022/06/25 13:12:10;;;;;;;16.23;7.35;;;22.80;97.10;;;;;;5072721;28;20076;-73
2022/06/25 13:14:37;;;;;;;16.92;8.57;;;22.80;97.20;;;;;;5023156;28;20045;-73
2022/06/25 13:17:04;;;;;;;20.33;9.23;;;23.40;95.30;;;;;;5055782;28;20044;-73
2022/06/25 13:19:30;;;;;;;15.25;7.18;;;22.10;97.10;;;;;;5056369;28;20429;-73
2022/06/25 13:21:58;;;;;;;17.63;7.10;;;22.80;93.80;;;;;;5072674;28;20040;-73
2022/06/25 13:24:24;;;;;;;17.10;6.65;;;23.00;93.20;;;;;;5072479;28;20044;-73
2022/06/25 13:26:51;;;;;;;19.23;7.65;;;22.10;97.00;;;;;;5072484;28;20493;-73